sensor_id;sensor_type;location;lat;lon;timestamp;temperature;humidity
7240;DHT22;3661;53.288;10.458;2023-08-06T00:01:40;18.00;99.90
7240;DHT22;3661;53.288;10.458;2023-08-06T00:04:12;18.00;99.90
7240;DHT22;3661;53.288;10.458;2023-08-06T00:06:44;18.00;99.90
7240;DHT22;3661;53.288;10.458;2023-08-06T00:09:17;17.90;99.90
7240;DHT22;3661;53.288;10.458;2023-08-06T00:11:49;17.90;99.90
7240;DHT22;3661;53.288;10.458;2023-08-06T00:14:22;17.80;99.90
7240;DHT22;3661;53.288;10.458;2023-08-06T00:16:54;17.80;99.90
7240;DHT22;3661;53.288;10.458;2023-08-06T00:19:27;17.70;99.90
7240;DHT22;3661;53.288;10.458;2023-08-06T00:21:59;17.70;99.90
7240;DHT22;3661;53.288;10.458;2023-08-06T00:24:32;17.60;99.90
7240;DHT22;3661;53.288;10.458;2023-08-06T00:27:05;17.60;99.90
7240;DHT22;3661;53.288;10.458;2023-08-06T00:29:39;17.50;99.90
7240;DHT22;3661;53.288;10.458;2023-08-06T00:32:11;17.50;99.90
7240;DHT22;3661;53.288;10.458;2023-08-06T00:34:43;17.50;99.90
7240;DHT22;3661;53.288;10.458;2023-08-06T00:37:15;17.40;99.90
7240;DHT22;3661;53.288;10.458;2023-08-06T00:39:48;17.40;99.90
7240;DHT22;3661;53.288;10.458;2023-08-06T00:42:20;17.40;99.90
7240;DHT22;3661;53.288;10.458;2023-08-06T00:44:54;17.30;99.90
7240;DHT22;3661;53.288;10.458;2023-08-06T00:47:26;17.30;99.90
7240;DHT22;3661;53.288;10.458;2023-08-06T00:49:58;17.30;99.90
7240;DHT22;3661;53.288;10.458;2023-08-06T00:52:31;17.30;99.90
7240;DHT22;3661;53.288;10.458;2023-08-06T00:55:04;17.20;99.90
7240;DHT22;3661;53.288;10.458;2023-08-06T00:57:36;17.20;99.90
7240;DHT22;3661;53.288;10.458;2023-08-06T01:00:11;17.20;99.90
7240;DHT22;3661;53.288;10.458;2023-08-06T01:02:43;17.20;99.90
7240;DHT22;3661;53.288;10.458;2023-08-06T01:05:16;17.20;99.90
7240;DHT22;3661;53.288;10.458;2023-08-06T01:07:56;17.20;99.90
7240;DHT22;3661;53.288;10.458;2023-08-06T01:10:40;17.20;99.90
7240;DHT22;3661;53.288;10.458;2023-08-06T01:13:23;17.10;99.90
7240;DHT22;3661;53.288;10.458;2023-08-06T01:16:01;17.10;99.90
7240;DHT22;3661;53.288;10.458;2023-08-06T01:18:33;17.10;99.90
7240;DHT22;3661;53.288;10.458;2023-08-06T01:21:07;17.10;99.90
7240;DHT22;3661;53.288;10.458;2023-08-06T01:23:41;17.10;99.90
7240;DHT22;3661;53.288;10.458;2023-08-06T01:26:18;17.10;99.90
7240;DHT22;3661;53.288;10.458;2023-08-06T01:28:59;17.10;99.90
7240;DHT22;3661;53.288;10.458;2023-08-06T01:31:36;17.00;99.90
7240;DHT22;3661;53.288;10.458;2023-08-06T01:34:13;17.00;99.90
7240;DHT22;3661;53.288;10.458;2023-08-06T01:36:50;17.00;99.90
7240;DHT22;3661;53.288;10.458;2023-08-06T01:39:23;17.00;99.90
7240;DHT22;3661;53.288;10.458;2023-08-06T01:41:56;17.00;99.90
7240;DHT22;3661;53.288;10.458;2023-08-06T01:44:29;17.00;99.90
7240;DHT22;3661;53.288;10.458;2023-08-06T01:47:03;16.90;99.90
7240;DHT22;3661;53.288;10.458;2023-08-06T01:49:35;16.90;99.90
7240;DHT22;3661;53.288;10.458;2023-08-06T01:52:10;16.90;99.90
7240;DHT22;3661;53.288;10.458;2023-08-06T01:54:43;16.90;99.90
7240;DHT22;3661;53.288;10.458;2023-08-06T01:57:15;16.90;99.90
7240;DHT22;3661;53.288;10.458;2023-08-06T01:59:47;16.90;99.90
7240;DHT22;3661;53.288;10.458;2023-08-06T02:02:21;16.80;99.90
7240;DHT22;3661;53.288;10.458;2023-08-06T02:04:56;16.80;99.90
7240;DHT22;3661;53.288;10.458;2023-08-06T02:07:32;16.80;99.90
7240;DHT22;3661;53.288;10.458;2023-08-06T02:10:04;16.80;99.90
7240;DHT22;3661;53.288;10.458;2023-08-06T02:12:38;16.80;99.90
7240;DHT22;3661;53.288;10.458;2023-08-06T02:15:10;16.80;99.90
7240;DHT22;3661;53.288;10.458;2023-08-06T02:17:43;16.70;99.90
7240;DHT22;3661;53.288;10.458;2023-08-06T02:20:15;16.70;99.90
7240;DHT22;3661;53.288;10.458;2023-08-06T02:22:49;16.70;99.90
7240;DHT22;3661;53.288;10.458;2023-08-06T02:25:22;16.70;99.90
7240;DHT22;3661;53.288;10.458;2023-08-06T02:27:55;16.70;99.90
7240;DHT22;3661;53.288;10.458;2023-08-06T02:30:27;16.60;99.90
7240;DHT22;3661;53.288;10.458;2023-08-06T02:32:59;16.60;99.90
7240;DHT22;3661;53.288;10.458;2023-08-06T02:35:32;16.60;99.90
7240;DHT22;3661;53.288;10.458;2023-08-06T02:38:07;16.60;99.90
7240;DHT22;3661;53.288;10.458;2023-08-06T02:40:43;16.60;99.90
7240;DHT22;3661;53.288;10.458;2023-08-06T02:43:16;16.50;99.90
7240;DHT22;3661;53.288;10.458;2023-08-06T02:45:51;16.50;99.90
7240;DHT22;3661;53.288;10.458;2023-08-06T02:48:24;16.50;99.90
7240;DHT22;3661;53.288;10.458;2023-08-06T02:51:04;16.50;99.90
7240;DHT22;3661;53.288;10.458;2023-08-06T02:53:38;16.50;99.90
7240;DHT22;3661;53.288;10.458;2023-08-06T02:56:10;16.50;99.90
7240;DHT22;3661;53.288;10.458;2023-08-06T02:58:45;16.50;99.90
7240;DHT22;3661;53.288;10.458;2023-08-06T03:01:19;16.50;99.90
7240;DHT22;3661;53.288;10.458;2023-08-06T03:03:54;16.40;99.90
7240;DHT22;3661;53.288;10.458;2023-08-06T03:06:29;16.40;99.90
7240;DHT22;3661;53.288;10.458;2023-08-06T03:09:04;16.40;99.90
7240;DHT22;3661;53.288;10.458;2023-08-06T03:11:36;16.40;99.90
7240;DHT22;3661;53.288;10.458;2023-08-06T03:14:08;16.30;99.90
7240;DHT22;3661;53.288;10.458;2023-08-06T03:16:41;16.30;99.90
7240;DHT22;3661;53.288;10.458;2023-08-06T03:19:16;16.30;99.90
7240;DHT22;3661;53.288;10.458;2023-08-06T03:21:49;16.30;99.90
7240;DHT22;3661;53.288;10.458;2023-08-06T03:24:26;16.30;99.90
7240;DHT22;3661;53.288;10.458;2023-08-06T03:26:58;16.30;99.90
7240;DHT22;3661;53.288;10.458;2023-08-06T03:29:30;16.20;99.90
7240;DHT22;3661;53.288;10.458;2023-08-06T03:32:03;16.20;99.90
7240;DHT22;3661;53.288;10.458;2023-08-06T03:34:35;16.20;99.90
7240;DHT22;3661;53.288;10.458;2023-08-06T03:37:07;16.20;99.90
7240;DHT22;3661;53.288;10.458;2023-08-06T03:39:41;16.20;99.90
7240;DHT22;3661;53.288;10.458;2023-08-06T03:42:13;16.20;99.90
7240;DHT22;3661;53.288;10.458;2023-08-06T03:44:45;16.10;99.90
7240;DHT22;3661;53.288;10.458;2023-08-06T03:47:18;16.10;99.90
7240;DHT22;3661;53.288;10.458;2023-08-06T03:49:50;16.10;99.90
7240;DHT22;3661;53.288;10.458;2023-08-06T03:52:22;16.10;99.90
7240;DHT22;3661;53.288;10.458;2023-08-06T03:54:58;16.10;99.90
7240;DHT22;3661;53.288;10.458;2023-08-06T03:57:31;16.00;99.90
7240;DHT22;3661;53.288;10.458;2023-08-06T04:00:03;16.00;99.90
7240;DHT22;3661;53.288;10.458;2023-08-06T04:02:36;16.00;99.90
7240;DHT22;3661;53.288;10.458;2023-08-06T04:05:09;16.00;99.90
7240;DHT22;3661;53.288;10.458;2023-08-06T04:07:43;16.00;99.90
7240;DHT22;3661;53.288;10.458;2023-08-06T04:10:17;16.00;99.90
7240;DHT22;3661;53.288;10.458;2023-08-06T04:12:50;16.00;99.90
7240;DHT22;3661;53.288;10.458;2023-08-06T04:15:22;16.00;99.90
7240;DHT22;3661;53.288;10.458;2023-08-06T04:17:55;16.00;99.90
7240;DHT22;3661;53.288;10.458;2023-08-06T04:20:28;15.90;99.90
7240;DHT22;3661;53.288;10.458;2023-08-06T04:23:06;15.90;99.90
7240;DHT22;3661;53.288;10.458;2023-08-06T04:25:41;15.90;99.90
7240;DHT22;3661;53.288;10.458;2023-08-06T04:28:15;15.90;99.90
7240;DHT22;3661;53.288;10.458;2023-08-06T04:30:48;15.90;99.90
7240;DHT22;3661;53.288;10.458;2023-08-06T04:33:20;15.90;99.90
7240;DHT22;3661;53.288;10.458;2023-08-06T04:35:56;15.90;99.90
7240;DHT22;3661;53.288;10.458;2023-08-06T04:38:29;15.90;99.90
7240;DHT22;3661;53.288;10.458;2023-08-06T04:41:03;15.90;99.90
7240;DHT22;3661;53.288;10.458;2023-08-06T04:43:38;15.80;99.90
7240;DHT22;3661;53.288;10.458;2023-08-06T04:46:12;15.90;99.90
7240;DHT22;3661;53.288;10.458;2023-08-06T04:48:48;15.80;99.90
7240;DHT22;3661;53.288;10.458;2023-08-06T04:51:21;15.80;99.90
7240;DHT22;3661;53.288;10.458;2023-08-06T04:53:54;15.80;99.90
7240;DHT22;3661;53.288;10.458;2023-08-06T04:56:28;15.80;99.90
7240;DHT22;3661;53.288;10.458;2023-08-06T04:59:08;15.80;99.90
7240;DHT22;3661;53.288;10.458;2023-08-06T05:01:40;15.80;99.90
7240;DHT22;3661;53.288;10.458;2023-08-06T05:04:14;15.80;99.90
7240;DHT22;3661;53.288;10.458;2023-08-06T05:06:47;15.80;99.90
7240;DHT22;3661;53.288;10.458;2023-08-06T05:09:19;15.80;99.90
7240;DHT22;3661;53.288;10.458;2023-08-06T05:11:53;15.80;99.90
7240;DHT22;3661;53.288;10.458;2023-08-06T05:14:27;15.80;99.90
7240;DHT22;3661;53.288;10.458;2023-08-06T05:16:59;15.80;99.90
7240;DHT22;3661;53.288;10.458;2023-08-06T05:19:36;15.70;99.90
7240;DHT22;3661;53.288;10.458;2023-08-06T05:22:09;15.80;99.90
7240;DHT22;3661;53.288;10.458;2023-08-06T05:24:42;15.80;99.90
7240;DHT22;3661;53.288;10.458;2023-08-06T05:27:17;15.70;99.90
7240;DHT22;3661;53.288;10.458;2023-08-06T05:29:55;15.80;99.90
7240;DHT22;3661;53.288;10.458;2023-08-06T05:32:28;15.80;99.90
7240;DHT22;3661;53.288;10.458;2023-08-06T05:35:01;15.80;99.90
7240;DHT22;3661;53.288;10.458;2023-08-06T05:37:35;15.80;99.90
7240;DHT22;3661;53.288;10.458;2023-08-06T05:40:08;15.80;99.90
7240;DHT22;3661;53.288;10.458;2023-08-06T05:42:42;15.80;99.90
7240;DHT22;3661;53.288;10.458;2023-08-06T05:45:15;15.80;99.90
7240;DHT22;3661;53.288;10.458;2023-08-06T05:47:48;15.80;99.90
7240;DHT22;3661;53.288;10.458;2023-08-06T05:50:20;15.80;99.90
7240;DHT22;3661;53.288;10.458;2023-08-06T05:52:54;15.80;99.90
7240;DHT22;3661;53.288;10.458;2023-08-06T05:55:26;15.80;99.90
7240;DHT22;3661;53.288;10.458;2023-08-06T05:58:01;15.80;99.90
7240;DHT22;3661;53.288;10.458;2023-08-06T06:00:33;15.90;99.90
7240;DHT22;3661;53.288;10.458;2023-08-06T06:03:07;15.90;99.90
7240;DHT22;3661;53.288;10.458;2023-08-06T06:05:41;15.90;99.90
7240;DHT22;3661;53.288;10.458;2023-08-06T06:08:15;15.90;99.90
7240;DHT22;3661;53.288;10.458;2023-08-06T06:10:47;15.90;99.90
7240;DHT22;3661;53.288;10.458;2023-08-06T06:13:21;15.90;99.90
7240;DHT22;3661;53.288;10.458;2023-08-06T06:15:55;15.90;99.90
7240;DHT22;3661;53.288;10.458;2023-08-06T06:18:27;15.90;99.90
7240;DHT22;3661;53.288;10.458;2023-08-06T06:20:59;16.00;99.90
7240;DHT22;3661;53.288;10.458;2023-08-06T06:23:32;16.00;99.90
7240;DHT22;3661;53.288;10.458;2023-08-06T06:26:04;16.00;99.90
7240;DHT22;3661;53.288;10.458;2023-08-06T06:28:38;16.00;99.90
7240;DHT22;3661;53.288;10.458;2023-08-06T06:31:10;16.00;99.90
7240;DHT22;3661;53.288;10.458;2023-08-06T06:33:42;16.00;99.90
7240;DHT22;3661;53.288;10.458;2023-08-06T06:36:14;16.00;99.90
7240;DHT22;3661;53.288;10.458;2023-08-06T06:38:46;16.10;99.90
7240;DHT22;3661;53.288;10.458;2023-08-06T06:41:20;16.10;99.90
7240;DHT22;3661;53.288;10.458;2023-08-06T06:43:54;16.10;99.90
7240;DHT22;3661;53.288;10.458;2023-08-06T06:46:26;16.10;99.90
7240;DHT22;3661;53.288;10.458;2023-08-06T06:48:58;16.10;99.90
7240;DHT22;3661;53.288;10.458;2023-08-06T06:51:30;16.10;99.90
7240;DHT22;3661;53.288;10.458;2023-08-06T06:54:03;16.10;99.90
7240;DHT22;3661;53.288;10.458;2023-08-06T06:56:36;16.10;99.90
7240;DHT22;3661;53.288;10.458;2023-08-06T06:59:10;16.10;99.90
7240;DHT22;3661;53.288;10.458;2023-08-06T07:01:42;16.10;99.90
7240;DHT22;3661;53.288;10.458;2023-08-06T07:04:15;16.20;99.90
7240;DHT22;3661;53.288;10.458;2023-08-06T07:06:48;16.20;99.90
7240;DHT22;3661;53.288;10.458;2023-08-06T07:09:20;16.20;99.90
7240;DHT22;3661;53.288;10.458;2023-08-06T07:11:53;16.20;99.90
7240;DHT22;3661;53.288;10.458;2023-08-06T07:14:28;16.20;99.90
7240;DHT22;3661;53.288;10.458;2023-08-06T07:17:01;16.20;99.90
7240;DHT22;3661;53.288;10.458;2023-08-06T07:19:34;16.20;99.90
7240;DHT22;3661;53.288;10.458;2023-08-06T07:22:06;16.30;99.90
7240;DHT22;3661;53.288;10.458;2023-08-06T07:24:38;16.30;99.90
7240;DHT22;3661;53.288;10.458;2023-08-06T07:27:10;16.30;99.90
7240;DHT22;3661;53.288;10.458;2023-08-06T07:29:44;16.30;99.90
7240;DHT22;3661;53.288;10.458;2023-08-06T07:32:16;16.30;99.90
7240;DHT22;3661;53.288;10.458;2023-08-06T07:34:48;16.30;99.90
7240;DHT22;3661;53.288;10.458;2023-08-06T07:37:22;16.30;99.90
7240;DHT22;3661;53.288;10.458;2023-08-06T07:39:55;16.30;99.90
7240;DHT22;3661;53.288;10.458;2023-08-06T07:42:27;16.30;99.90
7240;DHT22;3661;53.288;10.458;2023-08-06T07:45:02;16.40;99.90
7240;DHT22;3661;53.288;10.458;2023-08-06T07:47:34;16.40;99.90
7240;DHT22;3661;53.288;10.458;2023-08-06T07:50:07;16.40;99.90
7240;DHT22;3661;53.288;10.458;2023-08-06T07:52:39;16.40;99.90
7240;DHT22;3661;53.288;10.458;2023-08-06T07:55:11;16.40;99.90
7240;DHT22;3661;53.288;10.458;2023-08-06T07:57:43;16.50;99.90
7240;DHT22;3661;53.288;10.458;2023-08-06T08:00:17;16.50;99.90
7240;DHT22;3661;53.288;10.458;2023-08-06T08:02:50;16.50;99.90
7240;DHT22;3661;53.288;10.458;2023-08-06T08:05:22;16.60;99.90
7240;DHT22;3661;53.288;10.458;2023-08-06T08:07:54;16.60;99.90
7240;DHT22;3661;53.288;10.458;2023-08-06T08:10:27;16.60;99.90
7240;DHT22;3661;53.288;10.458;2023-08-06T08:12:59;16.70;99.90
7240;DHT22;3661;53.288;10.458;2023-08-06T08:15:34;16.70;99.90
7240;DHT22;3661;53.288;10.458;2023-08-06T08:18:07;16.70;99.90
7240;DHT22;3661;53.288;10.458;2023-08-06T08:20:39;16.80;99.90
7240;DHT22;3661;53.288;10.458;2023-08-06T08:23:11;16.80;99.90
7240;DHT22;3661;53.288;10.458;2023-08-06T08:25:44;16.90;99.90
7240;DHT22;3661;53.288;10.458;2023-08-06T08:28:16;16.90;99.90
7240;DHT22;3661;53.288;10.458;2023-08-06T08:30:50;16.90;99.90
7240;DHT22;3661;53.288;10.458;2023-08-06T08:33:22;17.00;99.90
7240;DHT22;3661;53.288;10.458;2023-08-06T08:35:54;17.00;99.90
7240;DHT22;3661;53.288;10.458;2023-08-06T08:38:26;17.00;99.90
7240;DHT22;3661;53.288;10.458;2023-08-06T08:40:58;17.10;99.90
7240;DHT22;3661;53.288;10.458;2023-08-06T08:43:33;17.10;99.90
7240;DHT22;3661;53.288;10.458;2023-08-06T08:46:09;17.10;99.90
7240;DHT22;3661;53.288;10.458;2023-08-06T08:48:41;17.20;99.90
7240;DHT22;3661;53.288;10.458;2023-08-06T08:51:17;17.20;99.90
7240;DHT22;3661;53.288;10.458;2023-08-06T08:53:50;17.20;99.90
7240;DHT22;3661;53.288;10.458;2023-08-06T08:56:26;17.20;99.90
7240;DHT22;3661;53.288;10.458;2023-08-06T08:58:58;17.30;99.90
7240;DHT22;3661;53.288;10.458;2023-08-06T09:01:35;17.30;99.90
7240;DHT22;3661;53.288;10.458;2023-08-06T09:04:07;17.30;99.90
7240;DHT22;3661;53.288;10.458;2023-08-06T09:06:42;17.30;99.90
7240;DHT22;3661;53.288;10.458;2023-08-06T09:09:19;17.40;99.90
7240;DHT22;3661;53.288;10.458;2023-08-06T09:11:56;17.40;99.90
7240;DHT22;3661;53.288;10.458;2023-08-06T09:14:31;17.50;99.90
7240;DHT22;3661;53.288;10.458;2023-08-06T09:17:05;17.50;99.90
7240;DHT22;3661;53.288;10.458;2023-08-06T09:19:41;17.50;99.90
7240;DHT22;3661;53.288;10.458;2023-08-06T09:22:14;17.50;99.90
7240;DHT22;3661;53.288;10.458;2023-08-06T09:24:47;17.50;99.90
7240;DHT22;3661;53.288;10.458;2023-08-06T09:27:22;17.60;99.90
7240;DHT22;3661;53.288;10.458;2023-08-06T09:29:55;17.60;99.90
7240;DHT22;3661;53.288;10.458;2023-08-06T09:32:44;17.70;99.90
7240;DHT22;3661;53.288;10.458;2023-08-06T09:35:17;17.70;99.90
7240;DHT22;3661;53.288;10.458;2023-08-06T09:37:49;17.70;99.90
7240;DHT22;3661;53.288;10.458;2023-08-06T09:40:25;17.80;99.90
7240;DHT22;3661;53.288;10.458;2023-08-06T09:42:58;17.80;99.90
7240;DHT22;3661;53.288;10.458;2023-08-06T09:45:33;17.90;99.90
7240;DHT22;3661;53.288;10.458;2023-08-06T09:48:08;17.90;99.90
7240;DHT22;3661;53.288;10.458;2023-08-06T09:50:41;18.00;99.90
7240;DHT22;3661;53.288;10.458;2023-08-06T09:53:13;18.00;99.90
7240;DHT22;3661;53.288;10.458;2023-08-06T09:55:46;18.00;99.90
7240;DHT22;3661;53.288;10.458;2023-08-06T09:58:18;18.10;99.90
7240;DHT22;3661;53.288;10.458;2023-08-06T10:00:53;18.10;99.90
7240;DHT22;3661;53.288;10.458;2023-08-06T10:03:28;18.10;99.90
7240;DHT22;3661;53.288;10.458;2023-08-06T10:06:01;18.20;99.90
7240;DHT22;3661;53.288;10.458;2023-08-06T10:08:37;18.20;99.90
7240;DHT22;3661;53.288;10.458;2023-08-06T10:11:12;18.30;99.90
7240;DHT22;3661;53.288;10.458;2023-08-06T10:13:45;18.30;99.90
7240;DHT22;3661;53.288;10.458;2023-08-06T10:16:18;18.30;99.90
7240;DHT22;3661;53.288;10.458;2023-08-06T10:18:54;18.30;99.90
7240;DHT22;3661;53.288;10.458;2023-08-06T10:21:26;18.30;99.90
7240;DHT22;3661;53.288;10.458;2023-08-06T10:24:01;18.30;99.90
7240;DHT22;3661;53.288;10.458;2023-08-06T10:26:34;18.40;99.90
7240;DHT22;3661;53.288;10.458;2023-08-06T10:29:36;18.40;99.90
7240;DHT22;3661;53.288;10.458;2023-08-06T10:32:08;18.50;99.90
7240;DHT22;3661;53.288;10.458;2023-08-06T10:34:58;18.60;99.90
7240;DHT22;3661;53.288;10.458;2023-08-06T10:37:35;18.60;99.90
7240;DHT22;3661;53.288;10.458;2023-08-06T10:40:10;18.70;99.90
7240;DHT22;3661;53.288;10.458;2023-08-06T10:42:42;18.70;99.90
7240;DHT22;3661;53.288;10.458;2023-08-06T10:45:15;18.80;99.90
7240;DHT22;3661;53.288;10.458;2023-08-06T10:47:48;18.80;99.90
7240;DHT22;3661;53.288;10.458;2023-08-06T10:50:21;18.90;99.90
7240;DHT22;3661;53.288;10.458;2023-08-06T10:52:54;19.00;99.90
7240;DHT22;3661;53.288;10.458;2023-08-06T10:55:28;19.00;99.90
7240;DHT22;3661;53.288;10.458;2023-08-06T10:58:00;19.10;99.90
7240;DHT22;3661;53.288;10.458;2023-08-06T11:00:33;19.10;99.90
7240;DHT22;3661;53.288;10.458;2023-08-06T11:03:05;19.20;99.90
7240;DHT22;3661;53.288;10.458;2023-08-06T11:05:39;19.30;99.90
7240;DHT22;3661;53.288;10.458;2023-08-06T11:08:11;19.30;99.90
7240;DHT22;3661;53.288;10.458;2023-08-06T11:10:43;19.30;99.90
7240;DHT22;3661;53.288;10.458;2023-08-06T11:13:17;19.40;99.90
7240;DHT22;3661;53.288;10.458;2023-08-06T11:15:49;19.40;99.90
7240;DHT22;3661;53.288;10.458;2023-08-06T11:18:21;19.50;99.90
7240;DHT22;3661;53.288;10.458;2023-08-06T11:20:55;19.50;99.90
7240;DHT22;3661;53.288;10.458;2023-08-06T11:23:30;19.60;99.90
7240;DHT22;3661;53.288;10.458;2023-08-06T11:26:02;19.70;99.90
7240;DHT22;3661;53.288;10.458;2023-08-06T11:28:34;19.70;99.90
7240;DHT22;3661;53.288;10.458;2023-08-06T11:31:06;19.80;99.90
7240;DHT22;3661;53.288;10.458;2023-08-06T11:33:50;19.80;99.90
7240;DHT22;3661;53.288;10.458;2023-08-06T11:36:30;19.90;99.90
7240;DHT22;3661;53.288;10.458;2023-08-06T11:39:03;19.90;99.90
7240;DHT22;3661;53.288;10.458;2023-08-06T11:41:36;20.00;99.90
7240;DHT22;3661;53.288;10.458;2023-08-06T11:44:12;20.00;99.90
7240;DHT22;3661;53.288;10.458;2023-08-06T11:46:50;20.00;99.90
7240;DHT22;3661;53.288;10.458;2023-08-06T11:49:38;20.00;99.90
7240;DHT22;3661;53.288;10.458;2023-08-06T11:52:14;20.00;99.90
7240;DHT22;3661;53.288;10.458;2023-08-06T11:55:00;20.00;99.90
7240;DHT22;3661;53.288;10.458;2023-08-06T11:57:34;20.00;99.90
7240;DHT22;3661;53.288;10.458;2023-08-06T12:00:08;20.00;99.90
7240;DHT22;3661;53.288;10.458;2023-08-06T12:02:42;20.00;99.90
7240;DHT22;3661;53.288;10.458;2023-08-06T12:05:15;20.10;99.90
7240;DHT22;3661;53.288;10.458;2023-08-06T12:07:50;20.10;99.90
7240;DHT22;3661;53.288;10.458;2023-08-06T12:10:24;20.10;99.90
7240;DHT22;3661;53.288;10.458;2023-08-06T12:12:57;20.20;99.90
7240;DHT22;3661;53.288;10.458;2023-08-06T12:15:29;20.20;99.90
7240;DHT22;3661;53.288;10.458;2023-08-06T12:18:01;20.20;99.90
7240;DHT22;3661;53.288;10.458;2023-08-06T12:20:33;20.20;99.90
7240;DHT22;3661;53.288;10.458;2023-08-06T12:23:07;20.20;99.90
7240;DHT22;3661;53.288;10.458;2023-08-06T12:25:41;20.20;99.90
7240;DHT22;3661;53.288;10.458;2023-08-06T12:28:13;20.20;99.90
7240;DHT22;3661;53.288;10.458;2023-08-06T12:30:46;20.20;99.90
7240;DHT22;3661;53.288;10.458;2023-08-06T12:33:19;20.20;99.90
7240;DHT22;3661;53.288;10.458;2023-08-06T12:35:51;20.20;99.90
7240;DHT22;3661;53.288;10.458;2023-08-06T12:38:26;20.20;99.90
7240;DHT22;3661;53.288;10.458;2023-08-06T12:40:58;20.30;99.90
7240;DHT22;3661;53.288;10.458;2023-08-06T12:43:30;20.30;99.90
7240;DHT22;3661;53.288;10.458;2023-08-06T12:46:02;20.30;99.90
7240;DHT22;3661;53.288;10.458;2023-08-06T12:48:35;20.30;99.90
7240;DHT22;3661;53.288;10.458;2023-08-06T12:51:07;20.40;99.90
7240;DHT22;3661;53.288;10.458;2023-08-06T12:53:40;20.40;99.90
7240;DHT22;3661;53.288;10.458;2023-08-06T12:56:12;20.50;99.90
7240;DHT22;3661;53.288;10.458;2023-08-06T12:58:44;20.50;99.90
7240;DHT22;3661;53.288;10.458;2023-08-06T13:01:17;20.60;99.90
7240;DHT22;3661;53.288;10.458;2023-08-06T13:03:49;20.60;99.90
7240;DHT22;3661;53.288;10.458;2023-08-06T13:06:21;20.60;99.90
7240;DHT22;3661;53.288;10.458;2023-08-06T13:08:54;20.70;99.90
7240;DHT22;3661;53.288;10.458;2023-08-06T13:11:26;20.70;99.90
7240;DHT22;3661;53.288;10.458;2023-08-06T13:14:04;20.70;99.90
7240;DHT22;3661;53.288;10.458;2023-08-06T13:16:37;20.70;99.90
7240;DHT22;3661;53.288;10.458;2023-08-06T13:19:09;20.70;99.90
7240;DHT22;3661;53.288;10.458;2023-08-06T13:22:02;20.70;99.90
7240;DHT22;3661;53.288;10.458;2023-08-06T13:24:37;20.80;99.90
7240;DHT22;3661;53.288;10.458;2023-08-06T13:27:09;20.70;99.90
7240;DHT22;3661;53.288;10.458;2023-08-06T13:29:41;20.80;99.90
7240;DHT22;3661;53.288;10.458;2023-08-06T13:32:13;20.80;99.90
7240;DHT22;3661;53.288;10.458;2023-08-06T13:34:45;20.80;99.90
7240;DHT22;3661;53.288;10.458;2023-08-06T13:37:17;20.80;99.90
7240;DHT22;3661;53.288;10.458;2023-08-06T13:39:51;20.80;99.90
7240;DHT22;3661;53.288;10.458;2023-08-06T13:42:23;20.80;99.90
7240;DHT22;3661;53.288;10.458;2023-08-06T13:44:55;20.80;99.90
7240;DHT22;3661;53.288;10.458;2023-08-06T13:47:33;20.80;99.90
7240;DHT22;3661;53.288;10.458;2023-08-06T13:50:06;20.80;99.90
7240;DHT22;3661;53.288;10.458;2023-08-06T13:52:38;20.80;99.90
7240;DHT22;3661;53.288;10.458;2023-08-06T13:55:11;20.90;99.90
7240;DHT22;3661;53.288;10.458;2023-08-06T13:57:44;20.90;99.90
7240;DHT22;3661;53.288;10.458;2023-08-06T14:00:16;20.80;99.90
7240;DHT22;3661;53.288;10.458;2023-08-06T14:02:48;20.90;99.90
7240;DHT22;3661;53.288;10.458;2023-08-06T14:05:20;20.90;99.90
7240;DHT22;3661;53.288;10.458;2023-08-06T14:07:52;20.90;99.90
7240;DHT22;3661;53.288;10.458;2023-08-06T14:10:26;20.90;99.90
7240;DHT22;3661;53.288;10.458;2023-08-06T14:12:58;21.00;99.90
7240;DHT22;3661;53.288;10.458;2023-08-06T14:15:30;21.00;99.90
7240;DHT22;3661;53.288;10.458;2023-08-06T14:18:03;21.00;99.90
7240;DHT22;3661;53.288;10.458;2023-08-06T14:20:35;21.10;99.90
7240;DHT22;3661;53.288;10.458;2023-08-06T14:23:08;21.10;99.90
7240;DHT22;3661;53.288;10.458;2023-08-06T14:25:42;21.10;99.90
7240;DHT22;3661;53.288;10.458;2023-08-06T14:28:14;21.20;99.90
7240;DHT22;3661;53.288;10.458;2023-08-06T14:30:46;21.20;99.90
7240;DHT22;3661;53.288;10.458;2023-08-06T14:33:18;21.20;99.90
7240;DHT22;3661;53.288;10.458;2023-08-06T14:35:50;21.30;99.90
7240;DHT22;3661;53.288;10.458;2023-08-06T14:38:22;21.30;99.90
7240;DHT22;3661;53.288;10.458;2023-08-06T14:40:56;21.30;99.90
7240;DHT22;3661;53.288;10.458;2023-08-06T14:43:28;21.40;99.90
7240;DHT22;3661;53.288;10.458;2023-08-06T14:46:00;21.40;99.90
7240;DHT22;3661;53.288;10.458;2023-08-06T14:48:32;21.40;99.90
7240;DHT22;3661;53.288;10.458;2023-08-06T14:51:05;21.50;99.90
7240;DHT22;3661;53.288;10.458;2023-08-06T14:53:37;21.50;99.90
7240;DHT22;3661;53.288;10.458;2023-08-06T14:56:10;21.50;99.90
7240;DHT22;3661;53.288;10.458;2023-08-06T14:58:43;21.50;99.90
7240;DHT22;3661;53.288;10.458;2023-08-06T15:01:15;21.50;99.90
7240;DHT22;3661;53.288;10.458;2023-08-06T15:03:47;21.60;99.90
7240;DHT22;3661;53.288;10.458;2023-08-06T15:06:19;21.60;99.90
7240;DHT22;3661;53.288;10.458;2023-08-06T15:08:51;21.60;99.90
7240;DHT22;3661;53.288;10.458;2023-08-06T15:11:26;21.70;99.90
7240;DHT22;3661;53.288;10.458;2023-08-06T15:13:58;21.70;99.90
7240;DHT22;3661;53.288;10.458;2023-08-06T15:16:31;21.80;99.90
7240;DHT22;3661;53.288;10.458;2023-08-06T15:19:06;21.80;99.90
7240;DHT22;3661;53.288;10.458;2023-08-06T15:21:38;21.90;99.90
7240;DHT22;3661;53.288;10.458;2023-08-06T15:24:10;22.00;99.90
7240;DHT22;3661;53.288;10.458;2023-08-06T15:26:46;22.00;99.90
7240;DHT22;3661;53.288;10.458;2023-08-06T15:29:18;22.00;99.90
7240;DHT22;3661;53.288;10.458;2023-08-06T15:31:50;22.10;99.90
7240;DHT22;3661;53.288;10.458;2023-08-06T15:34:22;22.10;99.90
7240;DHT22;3661;53.288;10.458;2023-08-06T15:36:54;22.10;99.90
7240;DHT22;3661;53.288;10.458;2023-08-06T15:39:26;22.10;99.90
7240;DHT22;3661;53.288;10.458;2023-08-06T15:42:00;22.10;99.90
7240;DHT22;3661;53.288;10.458;2023-08-06T15:44:33;22.10;99.90
7240;DHT22;3661;53.288;10.458;2023-08-06T15:47:05;22.10;99.90
7240;DHT22;3661;53.288;10.458;2023-08-06T15:49:37;22.10;99.90
7240;DHT22;3661;53.288;10.458;2023-08-06T15:52:09;22.10;99.90
7240;DHT22;3661;53.288;10.458;2023-08-06T15:54:42;22.00;99.90
7240;DHT22;3661;53.288;10.458;2023-08-06T15:57:15;22.00;99.90
7240;DHT22;3661;53.288;10.458;2023-08-06T15:59:47;22.00;99.90
7240;DHT22;3661;53.288;10.458;2023-08-06T16:02:19;22.00;99.90
7240;DHT22;3661;53.288;10.458;2023-08-06T16:04:51;21.90;99.90
7240;DHT22;3661;53.288;10.458;2023-08-06T16:07:26;21.90;99.90
7240;DHT22;3661;53.288;10.458;2023-08-06T16:10:00;21.90;99.90
7240;DHT22;3661;53.288;10.458;2023-08-06T16:12:34;21.90;99.90
7240;DHT22;3661;53.288;10.458;2023-08-06T16:15:07;21.80;99.90
7240;DHT22;3661;53.288;10.458;2023-08-06T16:17:39;21.80;99.90
7240;DHT22;3661;53.288;10.458;2023-08-06T16:20:12;21.80;99.90
7240;DHT22;3661;53.288;10.458;2023-08-06T16:22:45;21.70;99.90
7240;DHT22;3661;53.288;10.458;2023-08-06T16:25:17;21.70;99.90